Startline

Cypress Challenge

Vancouver, BC - 11 août 2019

ÉpreuveRangTemps officiel DossardNomDivision Rang/sexeRang/division Puce
12K 1/557 0:30:10 464 FRASER MARAUN, Alexander M1929 1/407 1/55 0:30:08
12K 2/557 0:30:32 626 SCHELLENBERG, Thomas M1929 2/407 2/55 0:30:30
12K 3/557 0:30:53 482 BONAR, Mark M1929 3/407 3/55 0:30:49
12K 4/557 0:31:16 147 FLETT-BROWN, Amiel M1929 4/407 4/55 0:31:16
12K 5/557 0:31:24 473 BRADBURY, Christopher M1929 5/407 5/55 0:31:20
12K 6/557 0:31:28 559 FEHLMANN, Manuel M3039 6/407 1/92 0:31:25
12K 7/557 0:31:29 124 COSTELLO, Richard M3039 7/407 2/92 0:31:24
12K 8/557 0:31:57 165 CULLEN, Jake M1929 8/407 6/55 0:31:54
12K 9/557 0:31:58 480 BOCKSNICK, Jackson M1929 9/407 7/55 0:31:55
12K 10/557 0:32:01 552 HOMEWOOD, Justin M1929 10/407 8/55 0:31:57
12K 11/557 0:32:48 181 PRAZSKY, Allan M4049 11/407 1/97 0:32:45
12K 12/557 0:32:51 235 WELBOURN, Bob M4049 12/407 2/97 0:32:46
12K 13/557 0:32:57 73 TIMEWELL, Ken M5059 13/407 1/103 0:32:51
12K 14/557 0:33:04 633 DAVIS, Dylan M3039 14/407 3/92 0:33:01
12K 15/557 0:33:14 479 VAN DER SANDE, Marcus M1929 15/407 9/55 0:33:09
12K 16/557 0:33:45 359 POWELL, Andrew M4049 16/407 3/97 0:33:42
12K 17/557 0:33:46 806 KELLY, Declan M1929 17/407 10/55 0:33:41
12K 18/557 0:33:49 225 MICHAELS, Zachary M1929 18/407 11/55 0:33:42
12K 19/557 0:33:59 5 ZOLLER, Alan M3039 19/407 4/92 0:33:56
12K 20/557 0:34:25 610 LITTLE, Taylor M3039 20/407 5/92 0:34:20
12K 21/557 0:34:25 807 UTLEY, Martin M3039 21/407 6/92 0:34:21
12K 22/557 0:34:35 311 MOFFAT, Paul M3039 22/407 7/92 0:34:27
12K 23/557 0:34:43 512 DUYKER, Geoff M4049 23/407 4/97 0:34:39
12K 24/557 0:34:53 329 KERESZTES, Kevin M1929 24/407 12/55 0:34:49
12K 25/557 0:34:55 645 COX, Matthew M4049 25/407 5/97 0:34:47
12K 26/557 0:34:55 514 LEBLANC, Wilfrid M5059 26/407 2/103 0:34:41
12K 27/557 0:34:57 216 BASTIAN, Trevor M1929 27/407 13/55 0:34:57
12K 28/557 0:35:04 304 BROWN, Matthew M4049 28/407 6/97 0:34:58
12K 29/557 0:35:07 319 ORR, Sheldon M5059 29/407 3/103 0:34:55
12K 30/557 0:35:15 136 SCHAEFFER, Michele F3039 1/150 1/36 0:35:10
12K 31/557 0:35:25 476 DUNN, Mark M4049 30/407 7/97 0:35:17
12K 32/557 0:35:27 254 COOPERWILLIAMS, Matthew M5059 31/407 4/103 0:35:19
12K 33/557 0:35:33 334 WEBB, Matt M3039 32/407 8/92 0:35:31
12K 34/557 0:35:36 294 TOMLIN, Travis M3039 33/407 9/92 0:35:31
12K 35/557 0:35:38 314 WALLACE, Thomas M3039 34/407 10/92 0:35:28
12K 36/557 0:35:41 567 PURTZKI, Eric M3039 35/407 11/92 0:35:29
12K 37/557 0:35:43 459 MCBAIN, Sean M1929 36/407 14/55 0:35:32
12K 38/557 0:35:45 831 JOHNSON, Jonathan M3039 37/407 12/92 0:35:39
12K 39/557 0:35:48 58 BULLINGTON, Grant M4049 38/407 8/97 0:35:40
12K 40/557 0:36:05 497 WAGMAN, Jessie M1929 39/407 15/55 0:35:56
12K 41/557 0:36:07 437 JEPSEN, Colin M3039 40/407 13/92 0:35:52
12K 42/557 0:36:11 496 HANSEN, Chantalle F1929 2/150 1/33 0:36:01
12K 43/557 0:36:20 504 JAAKKOLA, Jussi M4049 41/407 9/97 0:36:09
12K 44/557 0:36:22 336 TIMMER, Alexander M1929 42/407 16/55 0:36:03
12K 45/557 0:36:23 128 GILLAM, David M3039 43/407 14/92 0:36:23
12K 46/557 0:36:27 513 HOWE, Jake M4049 44/407 10/97 0:36:19
12K 47/557 0:36:35 588 TOWGOOD, Paul M5059 45/407 5/103 0:36:26
12K 48/557 0:36:36 481 CARSWELL, Lindsay M4049 46/407 11/97 0:36:22
12K 49/557 0:36:43 477 DWINNELL, Matthew M4049 47/407 12/97 0:36:28
12K 50/557 0:36:52 125 GILL, Haley F3039 3/150 2/36 0:36:45
12K 51/557 0:36:53 127 CABOT, Morgan F3039 4/150 3/36 0:36:44
12K 52/557 0:36:57 584 SMIT, Liam M1618 48/407 1/6 0:36:44
12K 53/557 0:36:58 287 BOVILL, Esta F4049 5/150 1/26 0:36:51
12K 54/557 0:37:06 62 GASPAR, Carlos M5059 49/407 6/103 0:36:36
12K 55/557 0:37:37 571 BUYS, Francis M6069 50/407 1/41 0:37:28
12K 56/557 0:37:48 162 WONG, Wai-Ben M3039 51/407 15/92 0:37:46
12K 57/557 0:37:53 248 NICHOLS, Bob M4049 52/407 13/97 0:37:44
12K 58/557 0:37:56 639 INKSTER, Eric M1618 53/407 2/6 0:37:53
12K 59/557 0:37:57 539 FISHER, Jakub M3039 54/407 16/92 0:37:47
12K 60/557 0:38:04 483 HOLCOMBE, Adam M3039 55/407 17/92 0:37:53
12K 61/557 0:38:05 335 MORRISON, Devin M1929 56/407 17/55 0:37:47
12K 62/557 0:38:08 64 AMBROSI, Gregg M4049 57/407 14/97 0:37:44
12K 63/557 0:38:13 538 NORTHEY, Alexander M5059 58/407 7/103 0:37:50
12K 64/557 0:38:19 95 MATTHEWS, Krista F3039 6/150 4/36 0:38:10
12K 65/557 0:38:30 570 LOMBANA, Sergio M3039 59/407 18/92 0:38:27
12K 66/557 0:38:31 325 FERRARI, Alessandro M1929 60/407 18/55 0:37:56
12K 67/557 0:38:33 528 KOSCHEL, Gary M4049 61/407 15/97 0:37:50
12K 68/557 0:38:33 279 KAM, Christopher M5059 62/407 8/103 0:38:13
12K 69/557 0:38:37 215 FINNIS, Daniel M3039 63/407 19/92 0:38:06
12K 70/557 0:38:38 262 HARRINGTON, William M3039 64/407 20/92 0:38:07
12K 71/557 0:38:47 257 FERRUCCI, Peter M3039 65/407 21/92 0:38:36
12K 72/557 0:38:52 237 CLYDE, Mark M5059 66/407 9/103 0:38:33
12K 73/557 0:38:53 331 ANDERSON, Brian M5059 67/407 10/103 0:38:39
12K 74/557 0:38:58 129 WEISS, Joel M3039 68/407 22/92 0:38:20
12K 75/557 0:39:07 148 HALLBERG, Christer M5059 69/407 11/103 0:38:40
12K 76/557 0:39:09 60 PANG, Wilson M3039 70/407 23/92 0:38:39
12K 77/557 0:39:20 219 GLOTMAN, Harrison M1929 71/407 19/55 0:39:03
12K 78/557 0:39:22 190 JAMES, Ashley M4049 72/407 16/97 0:38:56
12K 79/557 0:39:26 302 PREMACK, Craig M5059 73/407 12/103 0:39:04
12K 80/557 0:39:31 466 EWERT, Grant M3039 74/407 24/92 0:38:56
12K 81/557 0:39:35 830 TUOVINEN, Andrew M5059 75/407 13/103 0:39:16
12K 82/557 0:39:35 569 KOZAK, Mike M3039 76/407 25/92 0:39:24
12K 83/557 0:39:36 179 BEHAN, Jordan M4049 77/407 17/97 0:39:33
12K 84/557 0:39:41 43 JAMES, Kenneth M6069 78/407 2/41 0:39:25
12K 85/557 0:39:45 110 DEWAR, Craig M5059 79/407 14/103 0:39:21
12K 86/557 0:39:47 601 COLEMAN, Alec M1618 80/407 3/6 0:39:23
12K 87/557 0:39:49 120 WOODBRIDGE, Mike M5059 81/407 15/103 0:39:28
12K 88/557 0:39:50 217 TAYLOR, Sonia F3039 7/150 5/36 0:39:41
12K 89/557 0:39:53 651 LAZARSKI, Marty M9999 82/407 1/3 0:39:36
12K 90/557 0:39:54 59 ANALYTIS, Spiros M5059 83/407 16/103 0:39:24
12K 91/557 0:39:58 123 LETHAM, Bill M6069 84/407 3/41 0:39:42
12K 92/557 0:40:02 154 HO, Timothy M1618 85/407 4/6 0:39:18
12K 93/557 0:40:02 472 MAJENDIE, Fiona F1929 8/150 2/33 0:39:50
12K 94/557 0:40:08 256 PALATY, Jan M5059 86/407 17/103 0:39:53
12K 95/557 0:40:12 203 WAIBLER, Max M5059 87/407 18/103 0:39:45
12K 96/557 0:40:20 320 OLSON, Ryan M4049 88/407 18/97 0:40:16
12K 97/557 0:40:28 495 KIRK, Thomas M3039 89/407 26/92 0:40:08
12K 98/557 0:40:29 189 FITZPATRICK, Keven M3039 90/407 27/92 0:39:11
12K 99/557 0:40:32 222 SZOPA, Dominik M4049 91/407 19/97 0:40:09
12K 100/557 0:40:33 258 HALE, Carson M1929 92/407 20/55 0:40:16
12K 101/557 0:40:34 618 FOLKA, Kevin M4049 93/407 20/97 0:39:42
12K 102/557 0:40:37 461 KUBY, Jeff M3039 94/407 28/92 0:40:02
12K 103/557 0:40:42 232 BARTER, Evan M3039 95/407 29/92 0:40:20
12K 104/557 0:40:44 825 SCHMIDT, Benjamh M3039 96/407 30/92 0:40:39
12K 105/557 0:40:46 144 GRABOWSKI, Graham M3039 97/407 31/92 0:40:17
12K 106/557 0:40:47 507 ELOFIR, Omar M4049 98/407 21/97 0:40:20
12K 107/557 0:40:49 581 WASIELA, Jakub M4049 99/407 22/97 0:40:32
12K 108/557 0:40:57 253 MCBRIDE, Trevor M5059 100/407 19/103 0:40:30
12K 109/557 0:40:59 166 BOYD, Shawn M4049 101/407 23/97 0:40:05
12K 110/557 0:41:05 9 RINTOUL, Scott M4049 102/407 24/97 0:40:43
12K 111/557 0:41:18 338 ENDICOTT, Dylan M3039 103/407 32/92 0:41:05
12K 112/557 0:41:21 2 WITZKE, Nicholas M3039 104/407 33/92 0:41:17
12K 113/557 0:41:31 308 MENNING, Grace F4049 9/150 2/26 0:41:25
12K 114/557 0:41:31 309 PARKER, Ian S M6069 105/407 4/41 0:41:06
12K 115/557 0:41:47 137 PHILLIPS, Ken M5059 106/407 20/103 0:41:21
12K 116/557 0:41:47 266 LOFTUS, Cameron M1929 107/407 21/55 0:41:29
12K 117/557 0:41:48 623 MCMAHON, Bernard M3039 108/407 34/92 0:41:16
12K 118/557 0:41:50 648 KEMPH, Josh M-U16 109/407 1/3 0:37:50
12K 119/557 0:41:50 315 KRZYWICKI, Paul M4049 110/407 25/97 0:41:30
12K 120/557 0:41:52 75 LANDY, Bob M6069 111/407 5/41 0:41:37
12K 121/557 0:41:52 489 PRESS, Richard M5059 112/407 21/103 0:41:26
12K 122/557 0:41:52 208 BATES, Duncan M3039 113/407 35/92 0:41:25
12K 123/557 0:41:58 146 REDEKOP, Gary M5059 114/407 22/103 0:41:31
12K 124/557 0:42:00 240 DAERENDINGER, Michael M4049 115/407 26/97 0:41:40
12K 125/557 0:42:04 468 LANOVILLE, Duncan M3039 116/407 36/92 0:41:36
12K 126/557 0:42:08 94 FUNAMOTO, Andrew M3039 117/407 37/92 0:41:57
12K 127/557 0:42:15 260 MACRAE, Peter M3039 118/407 38/92 0:41:52
12K 128/557 0:42:21 182 BARTON, Jason M6069 119/407 6/41 0:41:16
12K 129/557 0:42:22 220 BAGNALL, Stuart M3039 120/407 39/92 0:42:15
12K 130/557 0:42:23 193 WILSON-ROBERTS, Guy M4049 121/407 27/97 0:41:33
12K 131/557 0:42:26 557 HINDMARSH, Jack M1929 122/407 22/55 0:41:49
12K 132/557 0:42:26 340 STOEBE, Solveig F4049 10/150 3/26 0:41:42
12K 133/557 0:42:30 298 LAM, Michael M5059 123/407 23/103 0:41:54
12K 134/557 0:42:32 619 MACKENZIE, Lachlan M3039 124/407 40/92 0:41:57
12K 135/557 0:42:35 159 WAUGH, Michael M4049 125/407 28/97 0:41:33
12K 136/557 0:42:55 563 NEPOGODIN, Ilya M3039 126/407 41/92 0:42:18
12K 137/557 0:42:57 579 MUNNIS, John M4049 127/407 29/97 0:42:45
12K 138/557 0:43:07 351 LUONGO, Rolfe M4049 128/407 30/97 0:42:45
12K 139/557 0:43:11 119 LEGG, Thomas M-U16 129/407 2/3 0:42:09
12K 140/557 0:43:13 118 LEGG, John M5059 130/407 24/103 0:42:11
12K 141/557 0:43:16 808 OCEAN, Rick M4049 131/407 31/97 0:42:51
12K 142/557 0:43:16 450 HUTCHINSON, Alexander M1929 132/407 23/55 0:42:34
12K 143/557 0:43:17 339 MOUSSEAU, Steve M3039 133/407 42/92 0:42:22
12K 144/557 0:43:19 462 SO, Jason M4049 134/407 32/97 0:42:43
12K 145/557 0:43:48 103 SCAPILLATI, Matthew M4049 135/407 33/97 0:43:08
12K 146/557 0:43:53 582 HILTS, Ian M4049 136/407 34/97 0:43:12
12K 147/557 0:43:54 195 ARBO, Ross M4049 137/407 35/97 0:43:03
12K 148/557 0:43:55 455 WELLER, Jane F6069 11/150 1/15 0:43:42
12K 149/557 0:43:55 616 STONEHAM, Angela F3039 12/150 6/36 0:43:30
12K 150/557 0:44:03 432 CROTTI, Massimo M5059 138/407 25/103 0:43:35
12K 151/557 0:44:17 586 SMIT, Roelof M1618 139/407 5/6 0:44:00
12K 152/557 0:44:19 829 REIMER, Dean M4049 140/407 36/97 0:43:27
12K 153/557 0:44:21 475 BREMNER, James M3039 141/407 43/92 0:43:24
12K 154/557 0:44:24 276 GOODERHAM, Peter M4049 142/407 37/97 0:44:00
12K 155/557 0:44:27 337 CULLEN, Liz F3039 13/150 7/36 0:43:33
12K 156/557 0:44:29 827 HAM, Kevin M4049 143/407 38/97 0:44:14
12K 157/557 0:44:35 252 GENAILLE, Lora F4049 14/150 4/26 0:44:12
12K 158/557 0:44:35 30 SHOEMAKER, Darryl M5059 144/407 26/103 0:44:07
12K 159/557 0:44:37 267 GAGNON, Anne-Marie F4049 15/150 5/26 0:43:16
12K 160/557 0:44:41 171 VAN DYKE, Peter M5059 145/407 27/103 0:44:07
12K 161/557 0:44:42 172 LIN, Jack M5059 146/407 28/103 0:43:27
12K 162/557 0:44:46 270 PERRETT, Jordan M3039 147/407 44/92 0:43:39
12K 163/557 0:44:49 333 ARNOLD, Jeremiah M3039 148/407 45/92 0:44:49
12K 164/557 0:44:50 615 LOPEZ, Imanol M3039 149/407 46/92 0:43:51
12K 165/557 0:44:57 19 PAULS, Jesse M3039 150/407 47/92 0:42:43
12K 166/557 0:44:59 643 SILCOOK, Jonathan M4049 151/407 39/97 0:41:17
12K 167/557 0:45:12 577 DINEEN, Andrew M4049 152/407 40/97 0:44:37
12K 168/557 0:45:21 323 NOAKES, Colin M3039 153/407 48/92 0:44:58
12K 169/557 0:45:24 268 MAYER, Tennesssee F1929 16/150 3/33 0:44:04
12K 170/557 0:45:29 202 ROSENBERG, Tara F3039 17/150 8/36 0:45:02
12K 171/557 0:45:34 326 PRIESNITZ, Drew M3039 154/407 49/92 0:44:20
12K 172/557 0:45:38 508 ELEITER, Glenn M5059 155/407 29/103 0:45:03
12K 173/557 0:45:45 449 MACMILLAN, Bill M7079 156/407 1/7 0:45:00
12K 174/557 0:45:46 303 LEE, Chris M4049 157/407 41/97 0:45:09
12K 175/557 0:45:48 443 SCHINNERL, Sandra F5059 18/150 1/37 0:45:24
12K 176/557 0:45:51 228 KIPP, Stephen M4049 158/407 42/97 0:45:10
12K 177/557 0:45:51 176 LOTZKAR, J P M5059 159/407 30/103 0:44:53
12K 178/557 0:45:54 532 WALLIN, David M6069 160/407 7/41 0:44:36
12K 179/557 0:46:00 265 COLLINS, Brad M4049 161/407 43/97 0:44:40
12K 180/557 0:46:02 493 LITTLEMORE, Richard M6069 162/407 8/41 0:45:01
12K 181/557 0:46:03 621 LAU DE JONG, Amanda F4049 19/150 6/26 0:45:22
12K 182/557 0:46:17 22 GRAY, Colin M4049 163/407 44/97 0:43:56
12K 183/557 0:46:23 185 ST JACQUES, Pierre M5059 164/407 31/103 0:45:54
12K 184/557 0:46:23 105 CHANG, Mark M3039 165/407 50/92 0:46:01
12K 185/557 0:46:23 149 WESTERBERG, Brian M5059 166/407 32/103 0:45:57
12K 186/557 0:46:24 503 HOLEKSA, Guy M6069 167/407 9/41 0:45:45
12K 187/557 0:46:26 533 UJFALUSI, Joseph M4049 168/407 45/97 0:45:08
12K 188/557 0:46:29 205 DENHOED, Marcia F4049 20/150 7/26 0:45:56
12K 189/557 0:46:33 442 HENDERSON, Russell M3039 169/407 51/92 0:45:36
12K 190/557 0:46:35 603 TURCHAN, Andy M6069 170/407 10/41 0:46:13
12K 191/557 0:46:49 139 YAMAOKA, Scott M5059 171/407 33/103 0:46:20
12K 192/557 0:46:50 206 TAYLOR, David M5059 172/407 34/103 0:44:43
12K 193/557 0:47:10 104 RAMSEY, Layton M1929 173/407 24/55 0:46:11
12K 194/557 0:47:25 635 ZHOU, Thomas M1929 174/407 25/55 0:46:28
12K 195/557 0:47:26 348 FERNLUND, Goran M5059 175/407 35/103 0:46:25
12K 196/557 0:47:28 575 MA, Raymond M3039 176/407 52/92 0:46:06
12K 197/557 0:47:34 641 SZABO, Jim M6069 177/407 11/41 0:45:42
12K 198/557 0:47:34 499 MURRAY, Elise F3039 21/150 9/36 0:46:45
12K 199/557 0:47:37 196 KALLO, Tom M3039 178/407 53/92 0:46:45
12K 200/557 0:47:38 805 MORI, Lauren F3039 22/150 10/36 0:46:52
12K 201/557 0:47:38 343 COGGER, Christine F4049 23/150 8/26 0:46:42
12K 202/557 0:47:44 28 LIDEN, Wesley M3039 179/407 54/92 0:45:57
12K 203/557 0:47:45 122 NAKAGAWA, Karen F5059 24/150 2/37 0:47:00
12K 204/557 0:47:54 117 YANG, Hong Jen M5059 180/407 36/103 0:46:38
12K 205/557 0:47:59 353 KACZMAREK, Mary F1929 25/150 4/33 0:47:10
12K 206/557 0:48:02 191 MACDONALD, Alex M4049 181/407 46/97 0:45:39
12K 207/557 0:48:03 66 PURDHAM, Janette F5059 26/150 3/37 0:47:16
12K 208/557 0:48:33 138 COTTERILL, Peter M5059 182/407 37/103 0:48:07
12K 209/557 0:48:33 828 LOVETT, Matt M5059 183/407 38/103 0:47:09
12K 210/557 0:48:34 327 EULER, Katlyn F3039 27/150 11/36 0:47:21
12K 211/557 0:48:38 341 WANG, Hao M4049 184/407 47/97 0:47:42
12K 212/557 0:48:38 463 SALINAS, Jimena F1929 28/150 5/33 0:47:16
12K 213/557 0:48:40 226 STRYDOM, Nardia F5059 29/150 4/37 0:47:26
12K 214/557 0:48:42 307 BATES, Mark M5059 185/407 39/103 0:46:54
12K 215/557 0:48:48 637 KOSKELA, Kari M5059 186/407 40/103 0:48:12
12K 216/557 0:48:49 515 MCLAREN, Kevin M4049 187/407 48/97 0:45:16
12K 217/557 0:48:50 467 LEE, James M3039 188/407 55/92 0:47:22
12K 218/557 0:48:59 82 STEWART, Austin M1929 189/407 26/55 0:45:22
12K 219/557 0:49:00 86 STEWART, Norman M5059 190/407 41/103 0:46:40
12K 220/557 0:49:02 617 MCQUILKIN, Chris M4049 191/407 49/97 0:48:21
12K 221/557 0:49:02 332 DENNIS, Greg M3039 192/407 56/92 0:48:01
12K 222/557 0:49:03 590 HURDAL, Jordan M4049 193/407 50/97 0:48:23
12K 223/557 0:49:08 178 LEE, Melanie F3039 30/150 12/36 0:48:19
12K 224/557 0:49:09 636 SKELTON, Michael M5059 194/407 42/103 0:47:46
12K 225/557 0:49:18 355 CAMPBELL, Jeff M4049 195/407 51/97 0:47:15
12K 226/557 0:49:18 45 SIMMONS, Jaiden M1929 196/407 27/55 0:48:24
12K 227/557 0:49:21 436 HAZELL, Art M5059 197/407 43/103 0:48:11
12K 228/557 0:49:28 439 CROSBY, Christian M6069 198/407 12/41 0:48:17
12K 229/557 0:49:30 255 KERSEY, Jeremy M3039 199/407 57/92 0:48:55
12K 230/557 0:49:30 163 CHO, Edwin M5059 200/407 44/103 0:47:59
12K 231/557 0:49:31 328 TUSIM, Kyle M3039 201/407 58/92 0:48:29
12K 232/557 0:49:35 352 MOONEY, Tim M3039 202/407 59/92 0:48:46
12K 233/557 0:49:40 478 COHEN, Rebecca F3039 31/150 13/36 0:48:39
12K 234/557 0:49:40 29 HOPPER, Bryon M4049 203/407 52/97 0:47:13
12K 235/557 0:49:42 312 MCCORMICK, Sara F3039 32/150 14/36 0:47:40
12K 236/557 0:50:08 802 MACDONALD, Kelsey F1929 33/150 6/33 0:49:08
12K 237/557 0:50:09 460 STOBBE, Joel M3039 204/407 60/92 0:50:04
12K 238/557 0:50:09 142 LEA, Jane F4049 34/150 9/26 0:48:55
12K 239/557 0:50:12 548 AZIMI, Bob M4049 205/407 53/97 0:49:31
12K 240/557 0:50:24 356 BEAUREGARD, Philip M6069 206/407 13/41 0:48:13
12K 241/557 0:50:25 209 NATHANSON, Sarah F4049 35/150 10/26 0:49:08
12K 242/557 0:50:28 625 LEFENESKI, Mark M5059 207/407 45/103 0:48:04
12K 243/557 0:50:29 527 BYRNE, Ronan M5059 208/407 46/103 0:48:04
12K 244/557 0:50:29 646 SINNOTT, Joe M6069 209/407 14/41 0:49:26
12K 245/557 0:50:39 487 SCHICK, Dan M4049 210/407 54/97 0:48:15
12K 246/557 0:50:40 187 KOLOWRAT, Alfred M3039 211/407 61/92 0:48:37
12K 247/557 0:50:57 23 WYLIE, Andrew M4049 212/407 55/97 0:49:30
12K 248/557 0:50:58 192 O'MAHONY, Sean M6069 213/407 15/41 0:49:54
12K 249/557 0:51:00 606 BROWN, Whitney F3039 36/150 15/36 0:49:41
12K 250/557 0:51:01 17 MITCHELL, Paul M7079 214/407 2/7 0:49:41